Time;durP1;ratioP1;P1;durP2;ratioP2;P2;SDS_P1;SDS_P2;PMS_P1;PMS_P2;Temp;Humidity;BMP_temperature;BMP_pressure;BME280_temperature;BME280_humidity;BME280_pressure;Samples;Min_cycle;Max_cycle;Signal;HPM_P1;HPM_P2
2023/12/27 00:01:02;;;;;;;8.23;6.73;;;;;;;13.43;100.00;149413.41;5091945;28;20241;-64
2023/12/27 00:03:29;;;;;;;9.00;6.97;;;;;;;13.45;100.00;149418.50;5091998;28;20184;-63
2023/12/27 00:05:56;;;;;;;8.87;7.53;;;;;;;13.41;100.00;149408.38;5092294;28;20184;-64
2023/12/27 00:08:23;;;;;;;16.10;7.40;;;;;;;13.44;100.00;149415.97;5091982;28;20184;-63
2023/12/27 00:10:51;;;;;;;9.03;7.20;;;;;;;13.44;100.00;149415.97;5092256;28;20241;-63
2023/12/27 00:13:19;;;;;;;11.23;8.17;;;;;;;13.41;100.00;149408.38;5091816;28;20208;-64
2023/12/27 00:15:46;;;;;;;9.20;8.30;;;;;;;12.96;100.00;149296.84;5092143;28;20188;-64
2023/12/27 00:18:16;;;;;;;9.17;8.30;;;;;;;13.20;100.00;149357.66;5091307;28;20253;-65
2023/12/27 00:20:43;;;;;;;16.10;9.00;;;;;;;13.16;100.00;149347.53;5091949;28;20200;-64
2023/12/27 00:23:10;;;;;;;9.97;8.97;;;;;;;13.15;100.00;149343.75;5092145;28;20630;-65
2023/12/27 00:25:37;;;;;;;14.53;9.10;;;;;;;13.00;100.00;149306.97;5092119;28;20184;-64
2023/12/27 00:28:05;;;;;;;10.03;9.13;;;;;;;12.82;100.00;149261.34;5091682;28;20188;-65
2023/12/27 00:30:33;;;;;;;11.80;8.97;;;;;;;12.83;100.00;149265.19;5091768;28;20183;-63
2023/12/27 00:33:00;;;;;;;16.37;8.40;;;;;;;12.76;100.00;149246.19;5091788;28;20340;-66
2023/12/27 00:35:27;;;;;;;16.93;7.97;;;;;;;12.81;100.00;148871.59;5092060;28;20689;-64
2023/12/27 00:37:54;;;;;;;9.77;7.90;;;;;;;12.42;100.00;142406.47;5092059;28;20249;-66
2023/12/27 00:40:21;;;;;;;14.07;7.57;;;;;;;12.66;100.00;139126.31;5091964;28;20616;-64
2023/12/27 00:42:48;;;;;;;9.13;7.30;;;;;;;12.61;100.00;141956.34;5091974;28;20180;-64
2023/12/27 00:45:15;;;;;;;9.17;6.60;;;;;;;12.51;100.00;139002.25;5091833;28;20706;-63
2023/12/27 00:47:47;;;;;;;9.30;5.77;;;;;;;12.23;100.00;131092.78;5091712;28;20245;-64
2023/12/27 00:50:14;;;;;;;6.73;5.27;;;;;;;12.16;100.00;128413.91;5091445;28;20180;-63
2023/12/27 00:52:41;;;;;;;13.97;5.00;;;;;;;12.19;100.00;137123.13;5091639;28;20281;-63
2023/12/27 00:55:08;;;;;;;5.97;5.33;;;;;;;12.22;100.00;143717.63;5091740;28;20238;-65
2023/12/27 00:57:35;;;;;;;5.90;4.93;;;;;;;12.30;100.00;148740.09;5091546;28;20205;-64
2023/12/27 01:00:03;;;;;;;7.30;4.87;;;;;;;12.30;100.00;149132.25;5091445;28;20185;-64
2023/12/27 01:02:30;;;;;;;6.70;4.50;;;;;;;12.39;100.00;149152.50;5091573;28;20555;-63
2023/12/27 01:04:58;;;;;;;7.03;4.17;;;;;;;12.29;100.00;149129.72;5091431;28;20239;-63
2023/12/27 01:07:25;;;;;;;6.00;4.60;;;;;;;12.53;100.00;149187.94;5092066;28;20184;-63
2023/12/27 01:09:52;;;;;;;6.87;4.87;;;;;;;12.56;100.00;149195.56;5091297;28;20237;-63
2023/12/27 01:12:20;;;;;;;5.23;4.53;;;;;;;12.59;100.00;149204.41;5091103;28;20212;-63
2023/12/27 01:14:47;;;;;;;5.30;4.80;;;;;;;12.61;100.00;149208.19;5091252;28;20222;-64
2023/12/27 01:17:14;;;;;;;5.77;4.80;;;;;;;12.51;100.00;149184.16;5091393;28;20246;-64
2023/12/27 01:19:41;;;;;;;6.00;4.80;;;;;;;12.54;100.00;149190.47;5091647;28;20570;-64
2023/12/27 01:22:10;;;;;;;6.80;4.50;;;;;;;12.50;100.00;149180.34;5091303;28;20184;-64
2023/12/27 01:24:37;;;;;;;7.53;5.07;;;;;;;12.50;100.00;149180.34;5091611;28;20237;-63
2023/12/27 01:27:05;;;;;;;5.90;5.40;;;;;;;12.48;100.00;149175.25;5091256;28;20184;-64
2023/12/27 01:29:32;;;;;;;6.80;4.70;;;;;;;12.34;100.00;149142.41;5091567;28;20184;-64
2023/12/27 01:31:59;;;;;;;5.00;4.70;;;;;;;12.13;100.00;149087.97;5094578;28;20246;-64
2023/12/27 01:34:26;;;;;;;5.27;4.87;;;;;;;12.27;100.00;149124.63;5095264;28;20670;-64
2023/12/27 01:36:53;;;;;;;5.37;5.00;;;;;;;12.27;100.00;149123.38;5094717;28;20184;-64
2023/12/27 01:39:22;;;;;;;4.97;4.57;;;;;;;12.10;100.00;149080.34;5095075;28;20237;-64
2023/12/27 01:41:49;;;;;;;4.53;4.23;;;;;;;12.08;100.00;149076.56;5094696;28;20666;-64
2023/12/27 01:44:16;;;;;;;4.73;4.33;;;;;;;12.20;100.00;149105.66;5094942;28;20233;-64
2023/12/27 01:46:43;;;;;;;5.73;4.30;;;;;;;12.17;100.00;149099.34;5094841;28;20558;-63
2023/12/27 01:49:10;;;;;;;5.47;5.07;;;;;;;12.13;100.00;149089.22;5094795;28;20206;-64
2023/12/27 01:54:24;;;;;;;5.27;4.23;;;;;;;12.09;100.00;149079.09;5094266;28;20234;-64
2023/12/27 01:56:52;;;;;;;6.87;4.37;;;;;;;12.08;100.00;149076.56;5094636;28;20184;-64
2023/12/27 01:59:19;;;;;;;10.17;4.60;;;;;;;12.06;100.00;149070.22;5094265;28;20192;-64
2023/12/27 02:01:46;;;;;;;4.67;4.27;;;;;;;12.08;100.00;149075.28;5094376;28;20188;-63
2023/12/27 02:04:13;;;;;;;4.40;4.03;;;;;;;12.15;100.00;149093.00;5094190;28;20234;-63
2023/12/27 02:06:41;;;;;;;4.63;3.87;;;;;;;12.10;100.00;149080.34;5094409;28;20184;-63
2023/12/27 02:09:08;;;;;;;6.53;4.73;;;;;;;11.92;100.00;149036.06;5094376;28;20627;-63
2023/12/27 02:11:36;;;;;;;5.07;4.67;;;;;;;12.15;100.00;149094.25;5094012;28;20188;-64
2023/12/27 02:14:07;;;;;;;9.30;4.60;;;;;;;12.14;100.00;149090.44;5094058;28;20208;-63
2023/12/27 02:16:34;;;;;;;5.87;4.27;;;;;;;12.08;100.00;149076.56;5094348;28;20536;-64
2023/12/27 02:19:03;;;;;;;8.53;4.60;;;;;;;11.98;100.00;149049.97;5094247;28;20188;-64
2023/12/27 02:21:30;;;;;;;4.67;4.47;;;;;;;11.74;100.00;148990.50;5094341;28;20580;-64
2023/12/27 02:24:01;;;;;;;4.67;4.37;;;;;;;11.78;100.00;149000.63;5093901;28;20184;-63
2023/12/27 02:26:30;;;;;;;5.03;4.60;;;;;;;11.81;100.00;149008.22;5093732;28;20283;-63
2023/12/27 02:28:57;;;;;;;7.70;4.57;;;;;;;11.75;100.00;148994.28;5093790;28;20237;-64
2023/12/27 02:31:24;;;;;;;4.97;4.50;;;;;;;11.60;100.00;148956.28;5094037;28;20184;-63
2023/12/27 02:33:51;;;;;;;5.57;5.17;;;;;;;11.59;100.00;148952.50;5093873;28;20547;-64
2023/12/27 02:36:18;;;;;;;7.07;5.00;;;;;;;11.61;100.00;148957.56;5093696;28;20188;-64
2023/12/27 02:38:45;;;;;;;5.10;4.70;;;;;;;11.69;100.00;148979.06;5093798;28;20213;-64
2023/12/27 02:41:12;;;;;;;4.70;4.30;;;;;;;11.75;100.00;148993.06;5093257;28;20192;-64
2023/12/27 02:43:40;;;;;;;5.60;5.10;;;;;;;11.78;100.00;149001.91;5093812;28;20245;-63
2023/12/27 02:46:07;;;;;;;8.13;5.63;;;;;;;11.67;100.00;148972.78;5093627;28;20176;-64
2023/12/27 02:48:34;;;;;;;5.40;4.80;;;;;;;11.89;100.00;149028.44;5093605;28;20208;-63
2023/12/27 02:51:01;;;;;;;4.63;4.20;;;;;;;11.82;100.00;149012.03;5093444;28;20199;-63
2023/12/27 02:53:29;;;;;;;6.03;5.30;;;;;;;12.04;100.00;149065.16;5093139;28;20231;-64
2023/12/27 02:55:56;;;;;;;4.80;4.57;;;;;;;12.07;100.00;149074.03;5093275;28;20253;-64
2023/12/27 02:58:23;;;;;;;6.67;5.03;;;;;;;12.08;100.00;149076.56;5093047;28;20183;-63
2023/12/27 03:00:51;;;;;;;5.63;4.63;;;;;;;12.05;100.00;149068.94;5093279;28;20180;-63
2023/12/27 03:03:18;;;;;;;6.27;4.80;;;;;;;12.13;100.00;149087.97;5093177;28;20196;-63
2023/12/27 03:05:46;;;;;;;6.10;4.70;;;;;;;12.07;100.00;149074.03;5092957;28;20184;-63
2023/12/27 03:08:13;;;;;;;4.67;4.37;;;;;;;12.13;100.00;149087.97;5092903;28;20266;-64
2023/12/27 03:10:40;;;;;;;4.87;4.47;;;;;;;12.05;100.00;149067.72;5092949;28;20238;-63
2023/12/27 03:13:07;;;;;;;8.43;5.33;;;;;;;12.09;100.00;149079.09;5092818;28;20204;-64
2023/12/27 03:15:34;;;;;;;6.17;5.20;;;;;;;12.05;100.00;149067.72;5092980;28;20245;-64
2023/12/27 03:18:02;;;;;;;6.57;4.53;;;;;;;12.13;100.00;149089.22;5092661;28;20257;-64
2023/12/27 03:20:29;;;;;;;5.67;4.60;;;;;;;12.06;100.00;149070.22;5093004;28;20709;-64
2023/12/27 03:22:56;;;;;;;5.63;5.13;;;;;;;11.99;100.00;149053.78;5092867;28;20317;-63
2023/12/27 03:25:23;;;;;;;13.77;5.43;;;;;;;12.08;100.00;149076.56;5092633;28;20233;-64
2023/12/27 03:27:50;;;;;;;5.43;4.73;;;;;;;12.13;100.00;149087.97;5092860;28;20181;-64
2023/12/27 03:30:17;;;;;;;5.80;5.20;;;;;;;12.04;100.00;149066.44;5092910;28;20203;-64
2023/12/27 03:32:44;;;;;;;5.37;4.97;;;;;;;11.94;100.00;149039.84;5092420;28;20211;-63
2023/12/27 03:35:13;;;;;;;6.50;5.70;;;;;;;11.99;100.00;149052.50;5092541;28;20188;-63
2023/12/27 03:37:41;;;;;;;5.17;4.77;;;;;;;11.93;100.00;149037.31;5092662;28;20203;-64
2023/12/27 03:40:09;;;;;;;5.13;4.63;;;;;;;11.74;100.00;148991.78;5092461;28;20189;-63
2023/12/27 03:42:36;;;;;;;5.13;4.73;;;;;;;11.83;100.00;149013.28;5092735;28;20206;-64
2023/12/27 03:45:04;;;;;;;4.73;4.30;;;;;;;12.06;100.00;149071.47;5092354;28;20184;-63
2023/12/27 03:47:31;;;;;;;4.37;4.07;;;;;;;12.12;100.00;149086.69;5093282;28;20245;-64
2023/12/27 03:49:58;;;;;;;6.40;5.10;;;;;;;12.13;100.00;149089.22;5092975;28;20631;-63
2023/12/27 03:52:26;;;;;;;5.10;4.70;;;;;;;12.29;100.00;149129.72;5091889;28;20232;-64
2023/12/27 03:54:53;;;;;;;4.70;4.40;;;;;;;12.26;100.00;149122.09;5093071;28;20591;-64
2023/12/27 03:57:20;;;;;;;4.80;4.37;;;;;;;12.36;100.00;149147.44;5092493;28;20218;-63
2023/12/27 03:59:47;;;;;;;5.10;4.70;;;;;;;12.38;100.00;149149.97;5092430;28;20195;-63
2023/12/27 04:02:14;;;;;;;5.20;4.70;;;;;;;12.41;100.00;149158.81;5092036;28;20238;-63
2023/12/27 04:04:41;;;;;;;5.33;4.83;;;;;;;12.42;100.00;149160.09;5091998;28;20183;-64
2023/12/27 04:07:08;;;;;;;4.90;4.60;;;;;;;12.44;100.00;149165.13;5092009;28;20180;-64
2023/12/27 04:09:39;;;;;;;4.83;4.53;;;;;;;12.29;100.00;149129.72;5092044;28;20184;-64
2023/12/27 04:12:07;;;;;;;5.47;4.47;;;;;;;12.41;100.00;149157.56;5091763;28;20188;-63
2023/12/27 04:14:34;;;;;;;5.00;4.70;;;;;;;12.48;100.00;149175.25;5092052;28;20208;-63
2023/12/27 04:17:02;;;;;;;6.73;4.63;;;;;;;12.36;100.00;149147.44;5092101;28;20214;-64
2023/12/27 04:19:29;;;;;;;5.10;4.60;;;;;;;12.45;100.00;149168.94;5092071;28;20184;-63
2023/12/27 04:21:56;;;;;;;4.80;4.40;;;;;;;12.30;100.00;149131.00;5091723;28;20180;-64
2023/12/27 04:24:23;;;;;;;4.97;4.33;;;;;;;12.38;100.00;149149.97;5091648;28;20244;-63
2023/12/27 04:26:51;;;;;;;5.37;4.50;;;;;;;12.34;100.00;149141.13;5091669;28;20184;-63
2023/12/27 04:29:18;;;;;;;4.47;4.17;;;;;;;12.38;100.00;149151.25;5091962;28;20184;-63
2023/12/27 04:31:45;;;;;;;5.23;4.80;;;;;;;12.33;100.00;149139.84;5091883;28;20188;-64
2023/12/27 04:34:11;;;;;;;5.20;4.70;;;;;;;12.31;100.00;149134.75;5091848;28;20204;-64
2023/12/27 04:36:38;;;;;;;5.13;4.17;;;;;;;12.23;100.00;149113.25;5092051;28;20185;-63
2023/12/27 04:39:06;;;;;;;4.67;4.27;;;;;;;12.05;100.00;149068.94;5091591;28;20188;-63
2023/12/27 04:41:33;;;;;;;4.97;4.47;;;;;;;12.29;100.00;149129.72;5091531;28;20183;-63
2023/12/27 04:44:02;;;;;;;5.23;4.13;;;;;;;12.25;100.00;149119.59;5091519;28;20180;-63
2023/12/27 04:46:29;;;;;;;4.37;4.17;;;;;;;12.07;100.00;149074.03;5091790;28;20184;-63
2023/12/27 04:48:56;;;;;;;5.20;4.70;;;;;;;12.24;100.00;149115.78;5091725;28;20177;-64
2023/12/27 04:51:23;;;;;;;4.47;4.17;;;;;;;12.16;100.00;149095.53;5091382;28;20179;-64
2023/12/27 04:53:50;;;;;;;5.10;4.70;;;;;;;12.25;100.00;149119.59;5091242;28;20232;-64
2023/12/27 04:56:17;;;;;;;4.47;4.07;;;;;;;12.12;100.00;149086.69;5091811;28;20708;-63
2023/12/27 04:58:44;;;;;;;4.40;4.10;;;;;;;12.11;100.00;149084.16;5091639;28;20184;-64
2023/12/27 05:01:13;;;;;;;4.67;3.83;;;;;;;12.19;100.00;149104.41;5091573;28;20234;-63
2023/12/27 05:03:40;;;;;;;4.43;4.03;;;;;;;12.13;100.00;149087.97;5091298;28;20188;-62
2023/12/27 05:06:08;;;;;;;5.03;4.43;;;;;;;12.01;100.00;149057.59;5095136;28;20184;-64
2023/12/27 05:08:35;;;;;;;5.30;4.87;;;;;;;11.97;100.00;149048.69;5095154;28;20184;-62
2023/12/27 05:11:02;;;;;;;5.10;4.73;;;;;;;12.07;100.00;149072.75;5095392;28;20188;-63
2023/12/27 05:13:29;;;;;;;4.67;4.27;;;;;;;12.05;100.00;149068.94;5094929;28;20253;-63
2023/12/27 05:15:56;;;;;;;5.50;5.00;;;;;;;12.03;100.00;149063.91;5094943;28;20245;-64
2023/12/27 05:18:24;;;;;;;5.07;4.77;;;;;;;11.98;100.00;149051.25;5095277;28;20213;-63
2023/12/27 05:20:51;;;;;;;4.67;4.47;;;;;;;12.03;100.00;149062.63;5095213;28;20672;-63
2023/12/27 05:23:18;;;;;;;5.10;4.70;;;;;;;11.98;100.00;149049.97;5094910;28;20176;-63
2023/12/27 05:25:45;;;;;;;5.20;4.90;;;;;;;12.01;100.00;149057.59;5094980;28;20249;-64
2023/12/27 05:28:13;;;;;;;5.50;5.10;;;;;;;11.96;100.00;149044.94;5094876;28;20192;-63
2023/12/27 05:30:40;;;;;;;4.90;4.50;;;;;;;12.00;100.00;149055.06;5095059;28;20206;-64
2023/12/27 05:33:07;;;;;;;6.57;4.37;;;;;;;11.93;100.00;149037.31;5094878;28;20241;-64
2023/12/27 05:35:35;;;;;;;6.07;4.87;;;;;;;11.94;100.00;149041.13;5094960;28;20199;-64
2023/12/27 05:38:03;;;;;;;5.20;4.80;;;;;;;11.87;100.00;149023.41;5094808;28;20184;-64
2023/12/27 05:40:30;;;;;;;7.83;4.83;;;;;;;11.89;100.00;149029.72;5094623;28;20194;-63
2023/12/27 05:42:57;;;;;;;5.90;4.80;;;;;;;11.80;100.00;149005.66;5094427;28;20184;-64
2023/12/27 05:45:24;;;;;;;4.43;4.13;;;;;;;11.86;100.00;149022.16;5094407;28;20187;-63
2023/12/27 05:47:52;;;;;;;4.93;4.53;;;;;;;11.81;100.00;149008.22;5094327;28;20202;-65
2023/12/27 05:50:19;;;;;;;4.47;4.17;;;;;;;11.97;100.00;149047.41;5094507;28;20229;-63
2023/12/27 05:52:49;;;;;;;4.60;4.17;;;;;;;11.85;100.00;149018.34;5094203;28;20231;-64
2023/12/27 05:55:16;;;;;;;9.07;4.43;;;;;;;11.66;100.00;148970.22;5094188;28;20243;-63
2023/12/27 05:57:43;;;;;;;6.73;4.57;;;;;;;11.76;100.00;148995.56;5094275;28;20185;-62
2023/12/27 06:00:12;;;;;;;8.13;4.80;;;;;;;11.71;100.00;148982.88;5094387;28;20184;-63
2023/12/27 06:02:39;;;;;;;9.17;5.00;;;;;;;11.97;100.00;149048.69;5094256;28;20195;-63
2023/12/27 06:05:07;;;;;;;8.73;5.07;;;;;;;12.03;100.00;149063.91;5094160;28;20184;-63
2023/12/27 06:07:34;;;;;;;4.83;4.43;;;;;;;12.22;100.00;149110.75;5094123;28;20188;-63
2023/12/27 06:10:03;;;;;;;4.50;4.10;;;;;;;12.31;100.00;149133.50;5093991;28;20185;-63
2023/12/27 06:12:30;;;;;;;10.17;4.73;;;;;;;12.57;100.00;149198.06;5093965;28;20190;-64
2023/12/27 06:14:57;;;;;;;5.73;5.00;;;;;;;12.74;100.00;149241.09;5094191;28;20238;-64
2023/12/27 06:17:24;;;;;;;5.53;4.27;;;;;;;13.05;100.00;149319.63;5092998;28;20184;-64
2023/12/27 06:19:51;;;;;;;5.17;3.93;;;;;;;13.14;100.00;149342.50;5094165;28;20256;-64
2023/12/27 06:22:18;;;;;;;5.37;4.43;;;;;;;13.53;100.00;149438.78;5093850;28;20176;-63
2023/12/27 06:24:45;;;;;;;4.43;4.10;;;;;;;13.86;100.00;149521.13;5093812;28;20184;-64
2023/12/27 06:27:14;;;;;;;4.73;3.87;;;;;;;14.06;100.00;149573.09;5094031;28;20241;-64
2023/12/27 06:29:41;;;;;;;4.47;4.07;;;;;;;14.43;100.00;149665.66;5093753;28;20184;-64
2023/12/27 06:32:09;;;;;;;4.27;3.43;;;;;;;14.68;100.00;149727.81;5093852;28;20216;-64
2023/12/27 06:34:36;;;;;;;4.57;3.47;;;;;;;14.93;100.00;149791.22;5093437;28;20299;-65
2023/12/27 06:37:03;;;;;;;4.00;3.70;;;;;;;15.19;100.00;149855.88;5093771;28;20623;-65
2023/12/27 06:39:30;;;;;;;4.40;3.63;;;;;;;15.31;100.00;149886.38;5093515;28;20192;-64
2023/12/27 06:41:57;;;;;;;3.87;3.57;;;;;;;15.55;100.00;149946.03;5093255;28;20272;-64
2023/12/27 06:44:25;;;;;;;3.83;3.53;;;;;;;15.53;100.00;149941.00;5093332;28;20620;-64
2023/12/27 06:46:52;;;;;;;4.00;3.70;;;;;;;15.51;100.00;149935.88;5093287;28;20616;-64
2023/12/27 06:49:19;;;;;;;4.30;3.77;;;;;;;15.85;100.00;150020.91;5093470;28;20184;-63
2023/12/27 06:51:47;;;;;;;3.70;3.50;;;;;;;16.00;100.00;150058.97;5093078;28;20622;-64
2023/12/27 06:54:14;;;;;;;3.63;3.43;;;;;;;16.26;100.00;150125.00;5092874;28;20224;-65
2023/12/27 06:56:41;;;;;;;3.70;3.50;;;;;;;16.48;100.00;150178.31;5093050;28;20184;-64
2023/12/27 06:59:08;;;;;;;4.10;3.80;;;;;;;16.58;100.00;150203.78;5093333;28;20184;-64
2023/12/27 07:01:36;;;;;;;3.73;3.43;;;;;;;16.53;100.00;150192.31;5093259;28;20226;-64
2023/12/27 07:04:05;;;;;;;4.10;3.80;;;;;;;16.50;100.00;150183.44;5093191;28;20571;-64
2023/12/27 07:06:32;;;;;;;3.47;3.13;;;;;;;16.42;100.00;150164.38;5093316;28;20188;-64
2023/12/27 07:08:59;;;;;;;3.80;3.60;;;;;;;16.84;100.00;150271.13;5092869;28;20230;-64
2023/12/27 07:11:26;;;;;;;4.93;3.60;;;;;;;17.36;100.00;150400.66;5092719;28;20195;-65
2023/12/27 07:13:54;;;;;;;4.27;3.60;;;;;;;17.54;100.00;150446.41;5092689;28;20204;-65
2023/12/27 07:16:21;;;;;;;4.13;3.53;;;;;;;17.63;98.39;150469.34;5092845;28;20184;-64
2023/12/27 07:18:49;;;;;;;3.70;3.33;;;;;;;17.56;97.59;150451.53;5092488;28;20184;-65
2023/12/27 07:21:16;;;;;;;9.80;4.00;;;;;;;17.98;95.13;150555.78;5092609;28;20180;-65
2023/12/27 07:23:43;;;;;;;7.30;3.67;;;;;;;18.28;92.45;150632.06;5092642;28;20191;-65
2023/12/27 07:26:13;;;;;;;4.10;3.70;;;;;;;18.66;89.50;150728.78;5092879;28;20195;-65
2023/12/27 07:28:40;;;;;;;3.40;3.10;;;;;;;18.70;88.18;150737.69;5092584;28;20233;-65
2023/12/27 07:31:07;;;;;;;3.67;3.37;;;;;;;19.51;82.97;150941.28;5092416;28;20190;-65
2023/12/27 07:33:37;;;;;;;3.70;3.45;;;;;;;19.12;84.53;150843.25;5092509;28;20184;-65
2023/12/27 07:36:08;;;;;;;7.53;3.60;;;;;;;18.85;85.16;150775.81;5092355;28;20187;-64
2023/12/27 07:38:35;;;;;;;3.73;3.40;;;;;;;18.97;85.13;150806.34;5092430;28;20188;-66
2023/12/27 07:41:04;;;;;;;3.73;3.27;;;;;;;18.90;86.13;150788.53;5092437;28;20264;-65
2023/12/27 07:43:31;;;;;;;4.40;4.00;;;;;;;18.90;85.00;150788.53;5092465;28;20654;-64
2023/12/27 07:45:58;;;;;;;4.13;3.38;;;;;;;19.53;82.84;150947.63;5092212;28;20176;-65
2023/12/27 07:48:25;;;;;;;3.50;3.30;;;;;;;19.75;80.39;151001.09;5092384;28;20261;-64
2023/12/27 07:50:52;;;;;;;3.83;3.53;;;;;;;19.47;81.60;150932.38;5092302;28;20210;-64
2023/12/27 07:53:21;;;;;;;3.80;3.50;;;;;;;20.17;78.89;151108.03;5091928;28;20223;-64
2023/12/27 07:55:48;;;;;;;4.55;3.38;;;;;;;19.79;80.36;151012.53;5092233;28;20685;-65
2023/12/27 07:58:16;;;;;;;3.63;3.42;;;;;;;19.88;80.01;151034.19;5092291;28;20214;-66
2023/12/27 08:00:43;;;;;;;3.58;3.28;;;;;;;19.97;78.40;151057.09;5091973;28;20261;-65
2023/12/27 08:03:10;;;;;;;3.50;3.20;;;;;;;20.17;78.35;151108.03;5091917;28;20184;-64
2023/12/27 08:05:38;;;;;;;4.22;3.53;;;;;;;20.65;76.70;151227.78;5091839;28;20234;-65
2023/12/27 08:08:05;;;;;;;4.53;3.75;;;;;;;20.96;75.49;151306.78;5092174;28;20184;-64
2023/12/27 08:10:34;;;;;;;5.25;3.47;;;;;;;21.30;73.56;151392.19;5092089;28;20184;-65
2023/12/27 08:13:02;;;;;;;4.45;3.83;;;;;;;21.12;73.77;151347.59;5092012;28;20257;-64
2023/12/27 08:15:29;;;;;;;4.47;3.88;;;;;;;21.28;72.40;151388.34;5091623;28;20204;-65
2023/12/27 08:17:56;;;;;;;4.28;3.92;;;;;;;21.37;70.90;151411.28;5091696;28;20218;-65
2023/12/27 08:20:23;;;;;;;3.50;3.30;;;;;;;21.92;69.66;151547.66;5091647;28;20192;-65
2023/12/27 08:22:50;;;;;;;3.95;3.67;;;;;;;21.60;70.18;151467.38;5092035;28;20562;-65
2023/12/27 08:25:17;;;;;;;3.70;3.40;;;;;;;21.12;71.75;151346.25;5091731;28;20241;-65
2023/12/27 08:27:46;;;;;;;5.18;3.47;;;;;;;21.67;69.29;151485.22;5091609;28;20210;-64
2023/12/27 08:30:14;;;;;;;7.03;3.22;;;;;;;20.89;71.83;151288.91;5091735;28;20200;-65
2023/12/27 08:32:41;;;;;;;3.58;3.20;;;;;;;21.18;72.33;151361.56;5091678;28;20346;-65
2023/12/27 08:35:08;;;;;;;3.90;3.60;;;;;;;20.59;73.48;151212.47;5091747;28;20708;-65
2023/12/27 08:37:35;;;;;;;4.40;4.10;;;;;;;21.75;70.41;151505.59;5091771;28;20249;-65
2023/12/27 08:40:03;;;;;;;4.20;3.95;;;;;;;22.36;67.33;151659.94;5094016;28;20271;-65
2023/12/27 08:42:30;;;;;;;5.30;3.97;;;;;;;22.02;67.81;151574.50;5095895;28;20207;-64
2023/12/27 08:44:58;;;;;;;4.68;4.18;;;;;;;22.84;65.69;151781.09;5095923;28;20628;-64
2023/12/27 08:47:26;;;;;;;4.70;4.28;;;;;;;23.17;64.18;151864.00;5095734;28;20561;-65
2023/12/27 08:49:55;;;;;;;3.72;3.50;;;;;;;23.71;60.77;151999.38;5095801;28;20192;-65
2023/12/27 08:52:22;;;;;;;4.45;4.15;;;;;;;23.31;61.87;151898.47;5095738;28;20235;-64
2023/12/27 08:54:49;;;;;;;4.28;3.80;;;;;;;23.40;61.51;151921.44;5095481;28;20204;-64
2023/12/27 08:57:16;;;;;;;4.40;3.63;;;;;;;23.36;60.87;151911.25;5095674;28;20237;-65
2023/12/27 08:59:43;;;;;;;3.97;3.67;;;;;;;22.83;62.54;151778.53;5095839;28;20261;-67
2023/12/27 09:02:12;;;;;;;4.00;3.72;;;;;;;22.90;61.93;151796.44;5095252;28;20183;-64
2023/12/27 09:04:39;;;;;;;4.25;3.88;;;;;;;23.47;60.36;151939.34;5095311;28;20238;-65
2023/12/27 09:07:06;;;;;;;5.43;3.85;;;;;;;24.18;58.89;152119.41;5095504;28;20635;-64
2023/12/27 09:09:33;;;;;;;5.05;3.55;;;;;;;24.51;57.30;152202.41;5095234;28;20265;-65
2023/12/27 09:12:01;;;;;;;6.32;4.10;;;;;;;25.21;55.27;152379.97;5095406;28;20642;-65
2023/12/27 09:14:28;;;;;;;7.40;4.60;;;;;;;25.56;54.41;152468.19;5094944;28;20208;-64
2023/12/27 09:16:55;;;;;;;4.40;4.10;;;;;;;25.86;52.30;152543.59;5095219;28;20238;-64
2023/12/27 09:19:24;;;;;;;4.35;4.00;;;;;;;26.53;50.48;152713.66;5094953;28;20234;-64
2023/12/27 09:21:52;;;;;;;4.65;3.70;;;;;;;25.37;52.24;152419.63;5095274;28;20229;-64
2023/12/27 09:24:19;;;;;;;4.00;3.70;;;;;;;25.25;52.43;152390.19;5095063;28;20243;-64
2023/12/27 09:26:48;;;;;;;3.35;3.08;;;;;;;25.32;52.10;152406.81;5095193;28;20616;-64
2023/12/27 09:29:15;;;;;;;4.10;3.90;;;;;;;25.29;51.90;152400.41;5095137;28;20257;-64
2023/12/27 09:31:43;;;;;;;4.53;4.13;;;;;;;26.93;49.14;152814.78;5094757;28;20189;-65
2023/12/27 09:34:10;;;;;;;4.00;3.67;;;;;;;26.03;49.96;152585.78;5094648;28;20198;-65
2023/12/27 09:36:39;;;;;;;4.15;3.75;;;;;;;25.34;51.56;152411.91;5094661;28;20207;-65
2023/12/27 09:39:06;;;;;;;3.78;3.58;;;;;;;25.44;51.35;152438.78;5094863;28;20716;-65
2023/12/27 09:41:33;;;;;;;3.80;3.60;;;;;;;24.84;51.79;152286.69;5094565;28;20254;-64
2023/12/27 09:44:02;;;;;;;6.70;3.97;;;;;;;25.75;51.17;152516.78;5094681;28;20196;-65
2023/12/27 09:46:30;;;;;;;4.35;4.00;;;;;;;25.56;50.57;152466.91;5094515;28;20245;-65
2023/12/27 09:48:57;;;;;;;3.90;3.35;;;;;;;25.72;49.99;152509.09;5094389;28;20191;-65
2023/12/27 09:51:26;;;;;;;4.13;3.70;;;;;;;25.75;49.97;152516.78;5093333;28;20588;-65
2023/12/27 09:53:54;;;;;;;6.35;3.78;;;;;;;26.04;49.65;152588.34;5094076;28;20261;-66
2023/12/27 09:56:23;;;;;;;4.40;3.75;;;;;;;25.72;50.16;152509.09;5094234;28;20204;-65
2023/12/27 09:58:53;;;;;;;3.40;3.20;;;;;;;25.36;51.02;152417.03;5094532;28;20616;-65
2023/12/27 10:01:24;;;;;;;4.75;3.95;;;;;;;25.74;49.29;152514.22;5094200;28;20274;-65
2023/12/27 10:03:55;;;;;;;6.45;3.90;;;;;;;25.40;50.43;152428.56;5094183;28;20290;-64
2023/12/27 10:06:35;;;;;;;3.85;3.65;;;;;;;24.97;51.52;152319.94;5094037;28;20181;-64
2023/12/27 10:09:05;;;;;;;3.90;3.60;;;;;;;24.67;52.24;152243.25;5094254;28;20219;-65
2023/12/27 10:11:32;;;;;;;6.53;4.05;;;;;;;24.94;51.73;152312.28;5093890;28;20187;-65
2023/12/27 10:13:59;;;;;;;4.93;3.58;;;;;;;24.82;51.55;152281.59;5093908;28;20188;-64
2023/12/27 10:16:27;;;;;;;10.07;4.43;;;;;;;24.97;51.21;152319.94;5093804;28;20211;-64
2023/12/27 10:18:54;;;;;;;5.70;3.78;;;;;;;25.40;50.47;152428.56;5093844;28;20659;-64
2023/12/27 10:21:21;;;;;;;6.60;4.45;;;;;;;25.53;50.20;152460.53;5093912;28;20211;-65
2023/12/27 10:23:48;;;;;;;4.70;3.90;;;;;;;25.93;49.66;152562.75;5093771;28;20195;-64
2023/12/27 10:26:19;;;;;;;4.80;4.43;;;;;;;25.61;49.68;152479.69;5093896;28;20237;-64
2023/12/27 10:28:46;;;;;;;4.07;3.67;;;;;;;25.27;50.42;152394.03;5093997;28;20658;-65
2023/12/27 10:31:13;;;;;;;3.60;3.30;;;;;;;26.08;49.11;152599.84;5093647;28;20184;-65
2023/12/27 10:33:45;;;;;;;5.85;4.15;;;;;;;26.55;48.62;152717.53;5093676;28;20191;-65
2023/12/27 10:36:12;;;;;;;5.65;4.03;;;;;;;26.29;48.64;152652.31;5093729;28;20739;-65
2023/12/27 10:38:40;;;;;;;5.38;4.07;;;;;;;26.14;48.71;152613.94;5093416;28;20188;-66
2023/12/27 10:41:07;;;;;;;3.80;3.60;;;;;;;26.63;47.14;152739.25;5093736;28;20199;-64
2023/12/27 10:43:36;;;;;;;3.38;3.08;;;;;;;26.92;46.83;152810.91;5093300;28;20183;-66
2023/12/27 10:46:08;;;;;;;4.68;3.70;;;;;;;27.21;46.63;152885.09;5093309;28;20241;-65
2023/12/27 10:48:40;;;;;;;4.75;3.55;;;;;;;27.61;46.00;152986.25;5093416;28;20227;-64
2023/12/27 10:51:07;;;;;;;4.10;3.72;;;;;;;27.71;45.52;153013.09;5093287;28;20184;-65
2023/12/27 10:53:35;;;;;;;5.50;3.65;;;;;;;28.09;44.48;153109.13;5093136;28;20709;-65
2023/12/27 10:56:03;;;;;;;3.63;3.42;;;;;;;28.57;43.21;153229.47;5093456;28;20666;-65
2023/12/27 10:58:33;;;;;;;5.35;3.63;;;;;;;28.70;42.76;153262.81;5093116;28;20278;-65
2023/12/27 11:01:02;;;;;;;3.20;3.00;;;;;;;29.29;41.74;153412.69;5093057;28;20222;-65
2023/12/27 11:03:33;;;;;;;3.10;2.90;;;;;;;28.98;41.35;153333.25;5092605;28;20196;-65
2023/12/27 11:06:02;;;;;;;3.10;2.90;;;;;;;29.32;40.65;153420.38;5092984;28;20196;-65
2023/12/27 11:08:32;;;;;;;4.80;3.35;;;;;;;28.47;41.72;153205.19;5093296;28;20569;-65
2023/12/27 11:11:04;;;;;;;3.15;2.95;;;;;;;27.49;43.55;152955.53;5093175;28;20554;-64
2023/12/27 11:13:35;;;;;;;3.10;2.90;;;;;;;27.41;43.27;152936.31;5093272;28;20528;-64
2023/12/27 11:16:07;;;;;;;3.53;3.33;;;;;;;27.46;43.23;152947.78;5093124;28;20207;-64
2023/12/27 11:18:36;;;;;;;5.53;2.83;;;;;;;28.01;42.84;153088.59;5092644;28;20176;-64
2023/12/27 11:21:03;;;;;;;3.70;3.45;;;;;;;28.04;42.63;153096.31;5092708;28;20192;-65
2023/12/27 11:23:30;;;;;;;4.57;4.00;;;;;;;27.99;43.48;153083.50;5092594;28;20184;-64